Time;durP1;ratioP1;P1;durP2;ratioP2;P2;SDS_P1;SDS_P2;PMS_P1;PMS_P2;Temp;Humidity;BMP_temperature;BMP_pressure;BME280_temperature;BME280_humidity;BME280_pressure;Samples;Min_cycle;Max_cycle;Signal;HPM_P1;HPM_P2
2023/01/24 00:00:25;;;;;;;21.55;15.95;;;2.80;99.90;;;;;;6217409;23;20095;-83
2023/01/24 00:02:51;;;;;;;24.83;17.20;;;2.60;99.90;;;;;;6190278;23;20091;-82
2023/01/24 00:05:16;;;;;;;24.10;16.50;;;2.50;99.90;;;;;;6217434;23;20008;-82
2023/01/24 00:07:42;;;;;;;24.88;17.27;;;2.60;99.90;;;;;;6217565;23;20136;-82
2023/01/24 00:10:08;;;;;;;24.10;16.98;;;2.60;99.90;;;;;;6216139;23;20509;-82
2023/01/24 00:12:34;;;;;;;24.63;17.50;;;2.70;99.90;;;;;;6215580;23;20012;-83
2023/01/24 00:15:00;;;;;;;25.42;17.38;;;2.80;99.90;;;;;;6192047;23;20091;-83
2023/01/24 00:17:25;;;;;;;26.52;17.95;;;2.60;99.90;;;;;;6217026;23;20069;-83
2023/01/24 00:19:51;;;;;;;27.13;17.10;;;2.70;99.90;;;;;;6217404;23;20023;-84
2023/01/24 00:22:17;;;;;;;24.90;16.30;;;2.60;99.90;;;;;;6244182;23;20094;-83
2023/01/24 00:24:42;;;;;;;26.50;16.63;;;2.70;99.90;;;;;;6216157;23;20012;-82
2023/01/24 00:27:08;;;;;;;27.58;17.92;;;2.70;99.90;;;;;;6191796;23;20012;-82
2023/01/24 00:29:34;;;;;;;24.77;17.20;;;2.60;99.90;;;;;;6190734;23;20018;-83
2023/01/24 00:31:59;;;;;;;25.27;16.90;;;2.80;99.90;;;;;;6188806;23;20450;-83
2023/01/24 00:34:25;;;;;;;27.63;17.35;;;2.70;99.90;;;;;;6214847;23;20016;-83
2023/01/24 00:36:50;;;;;;;24.63;16.48;;;2.60;99.90;;;;;;6190860;23;20012;-84
2023/01/24 00:39:16;;;;;;;25.90;17.60;;;2.80;99.90;;;;;;6218020;23;20023;-82
2023/01/24 00:41:42;;;;;;;26.10;17.08;;;2.70;99.90;;;;;;6217294;23;20020;-82
2023/01/24 00:44:07;;;;;;;24.52;17.33;;;2.70;99.90;;;;;;6216418;23;20012;-83
2023/01/24 00:46:33;;;;;;;25.65;16.73;;;2.80;99.90;;;;;;6190454;23;20066;-84
2023/01/24 00:49:00;;;;;;;26.52;17.75;;;2.60;99.90;;;;;;6214823;23;20020;-83
2023/01/24 00:51:25;;;;;;;26.13;18.55;;;2.70;99.90;;;;;;6204330;23;20016;-83
2023/01/24 00:53:51;;;;;;;27.92;18.08;;;2.60;99.90;;;;;;6213302;23;20012;-83
2023/01/24 00:56:17;;;;;;;27.27;18.45;;;2.50;99.90;;;;;;6188380;23;20035;-82
2023/01/24 00:58:42;;;;;;;31.50;19.23;;;2.60;99.90;;;;;;6215125;23;20037;-83
2023/01/24 01:01:08;;;;;;;29.00;18.85;;;2.70;99.90;;;;;;6214323;23;20400;-82
2023/01/24 01:03:35;;;;;;;27.23;18.58;;;2.60;99.90;;;;;;6213516;23;20143;-82
2023/01/24 01:09:41;;;;;;;27.73;19.10;;;2.50;99.90;;;;;;6243206;23;20077;-81
2023/01/24 01:12:06;;;;;;;27.58;17.98;;;2.70;99.90;;;;;;6214781;23;20736;-82
2023/01/24 01:14:32;;;;;;;28.23;19.60;;;2.70;99.90;;;;;;6216312;23;20016;-82
2023/01/24 01:16:58;;;;;;;28.25;19.17;;;2.70;99.90;;;;;;6193956;23;20099;-82
2023/01/24 01:19:24;;;;;;;28.83;19.35;;;2.60;99.90;;;;;;6193075;23;20054;-82
2023/01/24 01:22:27;;;;;;;31.05;19.27;;;2.80;99.90;;;;;;6226533;23;20080;-81
2023/01/24 01:24:53;;;;;;;31.33;20.08;;;2.80;99.90;;;;;;6229639;23;20016;-82
2023/01/24 01:27:19;;;;;;;31.58;19.65;;;2.70;99.90;;;;;;6231058;23;20023;-82
2023/01/24 01:29:44;;;;;;;31.02;19.48;;;2.60;99.90;;;;;;6216398;23;20012;-82
2023/01/24 01:32:10;;;;;;;29.23;19.77;;;2.50;99.90;;;;;;6215998;23;20455;-83
2023/01/24 01:34:36;;;;;;;30.02;19.83;;;2.70;99.90;;;;;;6213866;23;20457;-81
2023/01/24 01:37:01;;;;;;;28.40;19.00;;;2.80;99.90;;;;;;6212332;23;20023;-83
2023/01/24 01:39:27;;;;;;;27.30;19.67;;;2.80;99.90;;;;;;6186222;23;20044;-82
2023/01/24 01:41:53;;;;;;;33.33;20.65;;;2.60;99.90;;;;;;6187659;23;20020;-83
2023/01/24 01:44:41;;;;;;;30.60;20.23;;;2.40;99.90;;;;;;6187430;23;20083;-82
2023/01/24 01:47:30;;;;;;;30.60;20.25;;;2.50;99.90;;;;;;6187501;23;20016;-83
2023/01/24 01:50:01;;;;;;;31.92;19.85;;;2.60;99.90;;;;;;6214734;23;20149;-82
2023/01/24 01:52:31;;;;;;;30.13;21.25;;;2.80;99.90;;;;;;6240040;23;20028;-83
2023/01/24 01:55:01;;;;;;;31.20;20.42;;;2.70;99.90;;;;;;6189395;23;20020;-83
2023/01/24 01:57:31;;;;;;;30.55;20.85;;;2.50;99.90;;;;;;6211989;23;20656;-83
2023/01/24 02:00:06;;;;;;;30.70;20.13;;;2.80;99.90;;;;;;6213807;23;20058;-81
2023/01/24 02:02:32;;;;;;;31.98;20.40;;;2.50;99.90;;;;;;6212026;23;20059;-82
2023/01/24 02:05:07;;;;;;;31.45;21.17;;;2.70;99.90;;;;;;6187418;23;20008;-82
2023/01/24 02:07:44;;;;;;;34.28;21.33;;;2.50;99.90;;;;;;6213715;23;20027;-83
2023/01/24 02:10:11;;;;;;;31.23;21.40;;;2.70;99.90;;;;;;6189803;23;20444;-83
2023/01/24 02:12:45;;;;;;;31.52;21.63;;;2.80;99.90;;;;;;6189956;23;20118;-82
2023/01/24 02:18:07;;;;;;;34.60;22.02;;;2.50;99.90;;;;;;6214398;23;20024;-82
2023/01/24 02:20:45;;;;;;;34.17;22.27;;;2.80;99.90;;;;;;6214371;23;20016;-82
2023/01/24 02:23:36;;;;;;;32.60;22.08;;;2.70;99.90;;;;;;6222210;23;20019;-83
2023/01/24 02:26:21;;;;;;;35.28;22.08;;;2.50;99.90;;;;;;6188416;23;20111;-82
2023/01/24 02:28:58;;;;;;;36.42;22.08;;;2.60;99.90;;;;;;6214420;23;20062;-81
2023/01/24 02:31:24;;;;;;;32.92;22.42;;;2.50;99.90;;;;;;6214866;23;20469;-80
2023/01/24 02:33:50;;;;;;;36.67;21.88;;;2.50;99.90;;;;;;6214254;23;20066;-82
2023/01/24 02:36:32;;;;;;;30.13;20.77;;;2.80;99.90;;;;;;6214867;23;20379;-83
2023/01/24 02:39:08;;;;;;;32.72;20.90;;;2.80;99.90;;;;;;6217010;23;20039;-81
2023/01/24 02:41:43;;;;;;;34.00;21.13;;;2.80;99.90;;;;;;6192702;23;20022;-83
2023/01/24 02:44:14;;;;;;;31.60;20.45;;;2.70;99.90;;;;;;6213620;23;20355;-83
2023/01/24 02:46:43;;;;;;;30.73;20.60;;;2.50;99.90;;;;;;6190146;23;20012;-82
2023/01/24 02:49:10;;;;;;;32.05;20.45;;;2.50;99.90;;;;;;6214700;23;20171;-81
2023/01/24 02:54:20;;;;;;;33.60;22.53;;;2.50;99.90;;;;;;6214498;23;20020;-82
2023/01/24 02:59:30;;;;;;;31.92;21.13;;;2.80;99.90;;;;;;6214829;23;20767;-83
2023/01/24 03:01:55;;;;;;;33.83;21.27;;;2.80;99.90;;;;;;6213761;23;20012;-81
2023/01/24 03:04:21;;;;;;;31.90;20.33;;;2.70;99.90;;;;;;6214122;23;20012;-83
2023/01/24 03:07:41;;;;;;;29.83;20.08;;;2.80;99.90;;;;;;6214860;23;20340;-82
2023/01/24 03:10:11;;;;;;;28.58;18.83;;;2.90;99.90;;;;;;6212484;23;20103;-82
2023/01/24 03:34:48;;;;;;;22.33;15.43;;;2.70;99.90;;;;;;6212889;23;20668;-83
2023/01/24 03:37:16;;;;;;;19.85;14.65;;;2.90;99.90;;;;;;6240089;23;20008;-83
2023/01/24 03:39:58;;;;;;;20.17;14.07;;;2.70;99.90;;;;;;6186478;23;20023;-83
2023/01/24 03:42:26;;;;;;;20.55;13.90;;;2.90;99.90;;;;;;6185372;23;20095;-82
2023/01/24 03:44:52;;;;;;;21.40;14.30;;;2.70;99.90;;;;;;6187088;23;20012;-81
2023/01/24 03:47:17;;;;;;;20.48;14.52;;;3.10;99.90;;;;;;6214296;23;20023;-83
2023/01/24 03:52:28;;;;;;;23.98;15.60;;;2.60;99.90;;;;;;6213816;23;20026;-81
2023/01/24 03:55:00;;;;;;;24.63;16.38;;;2.90;99.90;;;;;;6188755;23;20012;-81
2023/01/24 03:57:27;;;;;;;21.77;16.23;;;2.60;99.90;;;;;;6238698;23;20593;-82
2023/01/24 03:59:53;;;;;;;25.25;16.98;;;3.00;99.90;;;;;;6212557;23;20016;-82
2023/01/24 04:02:20;;;;;;;22.73;16.95;;;2.80;99.90;;;;;;6212923;23;20078;-82
2023/01/24 04:07:31;;;;;;;25.48;17.98;;;2.90;99.90;;;;;;6215522;23;20012;-82
2023/01/24 04:09:58;;;;;;;25.13;18.23;;;2.60;99.90;;;;;;6215328;23;20363;-82
2023/01/24 04:12:24;;;;;;;26.45;17.90;;;2.90;99.90;;;;;;6190730;23;20051;-83
2023/01/24 04:14:50;;;;;;;25.95;17.70;;;2.80;99.90;;;;;;6215828;23;20031;-83
2023/01/24 04:17:16;;;;;;;25.15;17.60;;;2.60;99.90;;;;;;6215768;23;20012;-81
2023/01/24 04:19:41;;;;;;;23.30;16.88;;;2.60;99.90;;;;;;6243381;23;20008;-83
2023/01/24 04:22:07;;;;;;;24.50;17.77;;;2.70;99.90;;;;;;6216351;23;20090;-82
2023/01/24 04:24:33;;;;;;;20.10;15.85;;;2.90;99.90;;;;;;6190547;23;20012;-82
2023/01/24 04:26:58;;;;;;;19.65;14.68;;;2.60;99.90;;;;;;6216339;23;20442;-82
2023/01/24 04:29:24;;;;;;;20.50;15.38;;;2.60;99.90;;;;;;6214595;23;20461;-81
2023/01/24 04:31:50;;;;;;;22.13;15.32;;;2.60;99.90;;;;;;6188150;23;20031;-82
2023/01/24 04:34:15;;;;;;;20.35;14.80;;;2.80;99.90;;;;;;6214707;23;20016;-82
2023/01/24 04:40:22;;;;;;;17.42;13.85;;;2.60;99.90;;;;;;6242773;23;20138;-83
2023/01/24 04:42:47;;;;;;;19.25;13.73;;;2.70;99.90;;;;;;6188260;23;20070;-82
2023/01/24 04:45:13;;;;;;;16.25;12.52;;;2.60;99.90;;;;;;6212882;22;20040;-81
2023/01/24 04:47:39;;;;;;;20.05;14.10;;;2.70;99.90;;;;;;6213034;23;20020;-82
2023/01/24 04:50:05;;;;;;;17.77;13.98;;;2.70;99.90;;;;;;6212130;23;20078;-82
2023/01/24 04:52:31;;;;;;;16.80;13.23;;;2.70;99.90;;;;;;6238615;23;20198;-82
2023/01/24 04:54:56;;;;;;;19.00;13.48;;;2.60;99.90;;;;;;6187835;23;20050;-83
2023/01/24 04:57:22;;;;;;;17.27;13.25;;;2.80;99.90;;;;;;6215048;23;20016;-83
2023/01/24 04:59:47;;;;;;;18.75;13.45;;;2.80;99.90;;;;;;6214141;23;20099;-83
2023/01/24 05:02:13;;;;;;;17.20;14.13;;;2.70;99.90;;;;;;6239908;23;20020;-83
2023/01/24 05:04:39;;;;;;;18.75;14.10;;;2.80;99.90;;;;;;6214024;23;20180;-82
2023/01/24 05:07:04;;;;;;;21.15;16.00;;;2.70;99.90;;;;;;6188307;23;20015;-82
2023/01/24 05:09:30;;;;;;;21.25;15.88;;;2.60;99.90;;;;;;6190132;23;20395;-83
2023/01/24 05:11:56;;;;;;;23.92;16.55;;;2.60;99.90;;;;;;6214967;23;20016;-82
2023/01/24 05:14:21;;;;;;;21.42;16.58;;;2.80;99.90;;;;;;6212864;23;20015;-81
2023/01/24 05:16:47;;;;;;;20.27;16.55;;;2.90;99.90;;;;;;6188296;23;20012;-82
2023/01/24 05:19:13;;;;;;;21.75;16.13;;;2.70;99.90;;;;;;6187684;23;20341;-82
2023/01/24 05:21:38;;;;;;;21.13;16.23;;;2.70;99.90;;;;;;6211493;23;20020;-83
2023/01/24 05:24:04;;;;;;;20.75;17.20;;;2.80;99.90;;;;;;6211563;23;20019;-83
2023/01/24 05:26:30;;;;;;;19.30;15.35;;;2.70;99.90;;;;;;6214191;23;20016;-82
2023/01/24 05:28:56;;;;;;;21.02;16.38;;;2.70;99.90;;;;;;6187917;23;20094;-82
2023/01/24 05:31:21;;;;;;;20.15;15.57;;;2.60;99.90;;;;;;6189395;23;20078;-83
2023/01/24 05:33:47;;;;;;;28.55;16.85;;;2.80;99.90;;;;;;6213390;23;20102;-81
2023/01/24 05:36:19;;;;;;;22.17;16.92;;;2.60;99.90;;;;;;6211152;23;20427;-81
2023/01/24 05:38:45;;;;;;;22.63;16.33;;;2.70;99.90;;;;;;6186672;23;20027;-82
2023/01/24 05:41:16;;;;;;;24.92;17.42;;;2.60;99.90;;;;;;6185540;23;20032;-82
2023/01/24 05:43:42;;;;;;;23.85;17.45;;;2.60;99.90;;;;;;6187956;23;20012;-82
2023/01/24 05:46:15;;;;;;;24.20;17.70;;;2.60;99.90;;;;;;6211688;23;20013;-82
2023/01/24 05:48:42;;;;;;;21.88;16.27;;;2.70;99.90;;;;;;6189056;23;20091;-82
2023/01/24 05:51:10;;;;;;;24.17;17.45;;;2.50;99.90;;;;;;6214801;23;20048;-82
2023/01/24 05:53:38;;;;;;;23.92;17.42;;;2.60;99.90;;;;;;6211390;23;20016;-81
2023/01/24 05:56:15;;;;;;;24.48;17.50;;;2.80;99.90;;;;;;6194257;23;20050;-81
2023/01/24 05:58:42;;;;;;;23.70;18.15;;;2.70;99.90;;;;;;6217214;23;20020;-82
2023/01/24 06:01:09;;;;;;;24.73;18.08;;;2.80;99.90;;;;;;6212665;23;20097;-82
2023/01/24 06:03:37;;;;;;;26.85;18.67;;;2.70;99.90;;;;;;6211518;23;20087;-82
2023/01/24 06:06:03;;;;;;;26.75;19.85;;;2.70;99.90;;;;;;6213665;23;20054;-82
2023/01/24 06:08:29;;;;;;;27.65;20.02;;;2.50;99.90;;;;;;6241383;23;20016;-81
2023/01/24 06:10:55;;;;;;;26.98;19.60;;;2.70;99.90;;;;;;6215043;23;20019;-81
2023/01/24 06:13:21;;;;;;;26.77;19.33;;;2.70;99.90;;;;;;6195287;23;20492;-81
2023/01/24 06:15:47;;;;;;;27.58;20.00;;;2.70;99.90;;;;;;6214821;23;20325;-82
2023/01/24 06:18:17;;;;;;;28.40;19.55;;;2.50;99.90;;;;;;6213691;23;20027;-81
2023/01/24 06:20:43;;;;;;;28.77;20.02;;;2.50;99.90;;;;;;6214870;23;20055;-81
2023/01/24 06:23:21;;;;;;;28.88;20.77;;;2.50;99.90;;;;;;6213715;23;20012;-81
2023/01/24 06:25:47;;;;;;;31.17;21.13;;;2.60;99.90;;;;;;6213719;23;20142;-83
2023/01/24 06:28:13;;;;;;;29.50;21.00;;;2.70;99.90;;;;;;6238956;23;20050;-82
2023/01/24 06:30:41;;;;;;;30.20;20.50;;;2.50;99.90;;;;;;6213550;23;20092;-82
2023/01/24 06:33:39;;;;;;;30.33;21.33;;;2.60;99.90;;;;;;6211883;23;20012;-81
2023/01/24 06:37:01;;;;;;;28.52;20.02;;;2.60;99.90;;;;;;6213509;23;20012;-82
2023/01/24 06:39:27;;;;;;;30.85;21.05;;;2.60;99.90;;;;;;6121452;23;20434;-81
2023/01/24 06:41:53;;;;;;;29.70;20.55;;;2.50;99.90;;;;;;6121173;23;20095;-81
2023/01/24 06:44:19;;;;;;;31.27;21.80;;;2.60;99.90;;;;;;6120635;23;20041;-81
2023/01/24 06:46:45;;;;;;;30.60;21.85;;;2.50;99.90;;;;;;6120568;23;20017;-81
2023/01/24 06:49:11;;;;;;;33.72;22.90;;;2.40;99.90;;;;;;6122959;23;20180;-82
2023/01/24 06:51:37;;;;;;;33.03;22.65;;;2.40;99.90;;;;;;6123246;23;20017;-82
2023/01/24 06:54:03;;;;;;;33.20;22.98;;;2.60;99.90;;;;;;6122437;23;20029;-81
2023/01/24 06:56:29;;;;;;;32.60;22.75;;;2.60;99.90;;;;;;6149000;23;20017;-82
2023/01/24 06:58:54;;;;;;;30.77;22.17;;;2.60;99.90;;;;;;6099878;23;20084;-82
2023/01/24 07:01:20;;;;;;;30.52;21.88;;;2.60;99.90;;;;;;6120540;23;20017;-81
2023/01/24 07:03:46;;;;;;;36.10;22.63;;;2.40;99.90;;;;;;6096864;23;20068;-82
2023/01/24 07:06:11;;;;;;;33.20;22.42;;;2.60;99.90;;;;;;6120343;23;20080;-82
2023/01/24 07:08:37;;;;;;;31.50;22.23;;;2.40;99.90;;;;;;6122575;23;20060;-83
2023/01/24 07:11:03;;;;;;;33.22;22.73;;;2.50;99.90;;;;;;6120942;23;20021;-82
2023/01/24 07:13:28;;;;;;;34.00;22.00;;;2.50;99.90;;;;;;6145861;23;20017;-82
2023/01/24 07:15:54;;;;;;;32.83;22.65;;;2.50;99.90;;;;;;6198284;23;20042;-83
2023/01/24 07:18:20;;;;;;;33.78;22.38;;;2.30;99.90;;;;;;6211493;23;20095;-84
2023/01/24 07:20:47;;;;;;;30.92;21.55;;;2.30;99.90;;;;;;6211987;23;20079;-83
2023/01/24 07:23:32;;;;;;;31.23;21.63;;;2.40;99.90;;;;;;6188085;23;20014;-83
2023/01/24 07:25:58;;;;;;;;;;;2.30;99.90;;;;;;6213544;23;20043;-82
2023/01/24 07:28:24;;;;;;;34.13;21.83;;;2.40;99.90;;;;;;6213989;23;19947;-82
2023/01/24 07:30:52;;;;;;;30.33;22.48;;;2.40;99.90;;;;;;6214019;23;20042;-81
2023/01/24 07:33:18;;;;;;;31.88;21.40;;;2.60;99.90;;;;;;6213626;23;20110;-82
2023/01/24 07:35:44;;;;;;;34.65;22.25;;;2.40;99.90;;;;;;6214414;23;20023;-82
2023/01/24 07:38:11;;;;;;;34.10;22.23;;;2.30;99.90;;;;;;6189329;23;20068;-83
2023/01/24 07:40:38;;;;;;;30.48;22.02;;;2.50;99.90;;;;;;6190700;23;20009;-83
2023/01/24 07:43:04;;;;;;;27.92;20.33;;;2.60;99.90;;;;;;6214210;23;20456;-83
2023/01/24 07:45:31;;;;;;;27.02;19.35;;;2.40;99.90;;;;;;6212377;23;20016;-84
2023/01/24 07:47:58;;;;;;;28.80;19.55;;;2.30;99.90;;;;;;6186506;23;20356;-82
2023/01/24 07:50:25;;;;;;;28.50;19.35;;;2.40;99.90;;;;;;6221265;23;20004;-83
2023/01/24 07:52:54;;;;;;;28.95;20.70;;;2.30;99.90;;;;;;6214322;23;20016;-85
2023/01/24 07:55:21;;;;;;;26.73;18.83;;;2.50;99.90;;;;;;6188589;23;20034;-82
2023/01/24 07:57:46;;;;;;;30.88;19.50;;;2.50;99.90;;;;;;6214308;23;20511;-83
2023/01/24 08:00:13;;;;;;;24.77;18.40;;;2.50;99.90;;;;;;6214573;23;20054;-84
2023/01/24 08:02:40;;;;;;;25.42;18.17;;;2.60;99.90;;;;;;6187664;23;20490;-83
2023/01/24 08:05:06;;;;;;;25.08;19.13;;;2.30;99.90;;;;;;6212791;23;20016;-83
2023/01/24 08:07:32;;;;;;;22.90;17.92;;;2.50;99.90;;;;;;6238836;23;20023;-82
2023/01/24 08:09:57;;;;;;;23.50;17.60;;;2.30;99.90;;;;;;6217788;23;20008;-83
2023/01/24 08:12:23;;;;;;;23.05;16.75;;;2.40;99.90;;;;;;6217188;23;20043;-82
2023/01/24 08:14:49;;;;;;;25.60;18.77;;;2.40;99.90;;;;;;6216729;23;20046;-83
2023/01/24 08:17:15;;;;;;;25.70;18.08;;;2.40;99.90;;;;;;6189906;23;20522;-84
2023/01/24 08:19:41;;;;;;;23.85;17.95;;;2.30;99.90;;;;;;6190928;23;20356;-84
2023/01/24 08:22:07;;;;;;;25.80;17.60;;;2.30;99.90;;;;;;6215042;23;20318;-81
2023/01/24 08:24:33;;;;;;;22.13;17.15;;;2.50;99.90;;;;;;6223926;23;20012;-82
2023/01/24 08:27:00;;;;;;;23.83;16.30;;;2.60;99.90;;;;;;6215510;23;20012;-83
2023/01/24 08:29:26;;;;;;;23.95;16.95;;;2.40;99.90;;;;;;6189351;23;20019;-83
2023/01/24 08:31:52;;;;;;;22.05;17.40;;;2.30;99.90;;;;;;6187563;23;20020;-83
2023/01/24 08:34:18;;;;;;;22.83;16.17;;;2.50;99.90;;;;;;6211152;23;20306;-83
2023/01/24 08:36:43;;;;;;;25.42;16.08;;;2.40;99.90;;;;;;6212628;23;20123;-83
2023/01/24 08:39:09;;;;;;;21.48;16.92;;;2.60;99.90;;;;;;6212208;23;20325;-81
2023/01/24 08:41:35;;;;;;;25.00;18.13;;;2.60;99.90;;;;;;6213391;23;20016;-84
2023/01/24 08:44:02;;;;;;;25.45;16.77;;;2.50;99.90;;;;;;6211070;23;20012;-82
2023/01/24 08:46:28;;;;;;;21.67;15.32;;;2.40;99.90;;;;;;6211276;23;20020;-84
2023/01/24 08:48:54;;;;;;;21.33;15.15;;;2.40;99.90;;;;;;6187735;23;20071;-82
2023/01/24 08:51:20;;;;;;;21.45;15.63;;;2.50;99.90;;;;;;6214313;23;20448;-82
2023/01/24 08:53:45;;;;;;;20.40;15.18;;;2.60;99.90;;;;;;6212930;23;20020;-82
2023/01/24 08:56:12;;;;;;;20.98;15.75;;;2.40;99.90;;;;;;6209378;23;20016;-82
2023/01/24 08:58:37;;;;;;;21.05;15.88;;;2.40;99.90;;;;;;6210372;23;20064;-82
2023/01/24 09:01:10;;;;;;;21.80;15.52;;;2.50;99.90;;;;;;6239310;23;20455;-83
2023/01/24 09:03:36;;;;;;;20.42;14.63;;;2.40;99.90;;;;;;6188398;23;20016;-82
2023/01/24 09:06:03;;;;;;;21.85;15.63;;;2.40;99.90;;;;;;6213347;23;20012;-82
2023/01/24 09:08:29;;;;;;;21.30;15.63;;;2.60;99.90;;;;;;6208730;23;20012;-81
2023/01/24 09:10:58;;;;;;;21.83;15.38;;;2.60;99.90;;;;;;6185940;23;20009;-82
2023/01/24 09:13:24;;;;;;;20.92;16.15;;;2.70;99.90;;;;;;6185837;23;20050;-82
2023/01/24 09:15:50;;;;;;;20.65;15.45;;;2.40;99.90;;;;;;6212094;23;20016;-82
2023/01/24 09:18:16;;;;;;;23.50;16.60;;;2.60;99.90;;;;;;6210156;23;20019;-82
2023/01/24 09:20:42;;;;;;;20.77;16.10;;;2.60;99.90;;;;;;6186647;23;20050;-83
2023/01/24 09:23:11;;;;;;;22.52;16.45;;;2.50;99.90;;;;;;6186612;23;20083;-83
2023/01/24 09:25:37;;;;;;;22.08;15.65;;;2.60;99.90;;;;;;6210975;23;20091;-82
2023/01/24 09:28:03;;;;;;;21.60;14.45;;;2.60;99.90;;;;;;6192192;23;20078;-82
2023/01/24 09:30:29;;;;;;;18.65;14.05;;;2.60;99.90;;;;;;6238297;23;20430;-83
2023/01/24 09:32:55;;;;;;;18.42;12.85;;;2.70;99.90;;;;;;6186550;23;20016;-83
2023/01/24 09:35:20;;;;;;;19.13;13.00;;;2.60;99.90;;;;;;6211699;23;20012;-82
2023/01/24 09:37:46;;;;;;;19.20;13.02;;;2.60;99.90;;;;;;6185518;23;20047;-83
2023/01/24 09:40:26;;;;;;;18.02;13.43;;;2.70;99.90;;;;;;6211847;23;20024;-83
2023/01/24 09:43:06;;;;;;;18.20;12.90;;;2.70;99.90;;;;;;6187372;23;20479;-83
2023/01/24 09:46:13;;;;;;;17.30;12.57;;;2.60;99.90;;;;;;6216595;23;20031;-82
2023/01/24 09:48:40;;;;;;;19.40;12.80;;;2.70;99.90;;;;;;6121646;23;20020;-83
2023/01/24 09:51:16;;;;;;;17.52;11.77;;;2.70;99.90;;;;;;6123510;23;20024;-83
2023/01/24 09:54:03;;;;;;;19.67;12.93;;;2.70;99.90;;;;;;6120694;23;20044;-82
2023/01/24 09:56:37;;;;;;;19.13;12.57;;;2.70;99.90;;;;;;6120575;23;20017;-83
2023/01/24 09:59:16;;;;;;;17.42;12.50;;;2.70;99.90;;;;;;6120095;23;20013;-83
2023/01/24 10:01:42;;;;;;;16.58;11.73;;;2.60;99.90;;;;;;6120584;23;20109;-82
2023/01/24 10:04:15;;;;;;;19.40;12.50;;;2.70;99.90;;;;;;6119796;23;20014;-83
2023/01/24 10:06:48;;;;;;;16.13;11.63;;;2.60;99.90;;;;;;6121973;23;20045;-83
2023/01/24 10:09:31;;;;;;;18.05;12.18;;;2.70;99.90;;;;;;6122230;23;20024;-82
2023/01/24 10:12:10;;;;;;;16.45;11.70;;;2.50;99.90;;;;;;6124551;23;20144;-82
2023/01/24 10:15:12;;;;;;;17.52;11.73;;;2.60;99.90;;;;;;6121072;23;20036;-83
2023/01/24 10:17:58;;;;;;;17.23;11.77;;;2.70;99.90;;;;;;6146347;23;20500;-82
2023/01/24 10:20:44;;;;;;;19.38;11.68;;;2.80;99.90;;;;;;6180618;23;20020;-82
2023/01/24 10:23:17;;;;;;;16.77;11.98;;;2.80;99.90;;;;;;6238714;23;20012;-81
2023/01/24 10:25:51;;;;;;;16.95;11.50;;;2.80;99.90;;;;;;6187512;23;20015;-83
2023/01/24 10:28:26;;;;;;;16.27;11.67;;;2.80;99.90;;;;;;6186483;23;20030;-82
2023/01/24 10:31:17;;;;;;;18.77;12.80;;;2.90;99.90;;;;;;6211555;23;20386;-83
2023/01/24 10:33:50;;;;;;;17.52;12.63;;;2.90;99.90;;;;;;6189547;23;20020;-82
2023/01/24 10:36:37;;;;;;;16.73;11.85;;;2.80;99.90;;;;;;6190718;23;20107;-82
2023/01/24 10:39:04;;;;;;;19.40;11.90;;;2.70;99.90;;;;;;6213480;23;20016;-82
2023/01/24 10:41:31;;;;;;;16.25;11.35;;;2.80;99.90;;;;;;6186995;23;20027;-83
2023/01/24 10:44:08;;;;;;;16.42;11.57;;;2.80;99.90;;;;;;6212277;23;20297;-82
2023/01/24 10:46:43;;;;;;;15.73;11.73;;;2.90;99.90;;;;;;6204916;23;20021;-81
2023/01/24 10:49:26;;;;;;;17.75;11.85;;;2.90;99.90;;;;;;6207071;23;20063;-82
2023/01/24 10:52:12;;;;;;;15.02;10.68;;;2.80;99.90;;;;;;6203719;23;20031;-82
2023/01/24 10:54:56;;;;;;;16.33;11.27;;;3.10;99.90;;;;;;6207830;23;20032;-82
2023/01/24 10:57:48;;;;;;;17.63;11.63;;;2.90;99.90;;;;;;6208426;23;20027;-83
2023/01/24 11:00:35;;;;;;;16.88;11.15;;;3.00;99.90;;;;;;6208674;23;20310;-83
2023/01/24 11:03:03;;;;;;;15.52;11.40;;;3.00;99.90;;;;;;6207653;23;20016;-83
2023/01/24 11:05:49;;;;;;;16.65;11.13;;;3.00;99.90;;;;;;6208227;23;20317;-83
2023/01/24 11:08:36;;;;;;;17.45;12.00;;;2.90;99.90;;;;;;6206461;23;20440;-83
2023/01/24 11:11:16;;;;;;;16.45;11.68;;;2.80;99.90;;;;;;6208816;23;20735;-83
2023/01/24 11:13:41;;;;;;;16.33;12.07;;;2.90;99.90;;;;;;6208671;23;20032;-83
2023/01/24 11:16:22;;;;;;;18.02;11.95;;;2.70;99.90;;;;;;6209062;23;20098;-83
2023/01/24 11:18:57;;;;;;;16.30;12.27;;;2.90;99.90;;;;;;6208359;23;20100;-83
2023/01/24 11:21:22;;;;;;;17.02;12.15;;;3.10;99.90;;;;;;6209704;23;20118;-83
2023/01/24 11:24:06;;;;;;;17.67;12.35;;;3.00;99.90;;;;;;6209385;23;20017;-83
2023/01/24 11:26:52;;;;;;;17.23;11.60;;;3.00;99.90;;;;;;6208767;23;20013;-84
2023/01/24 11:29:18;;;;;;;15.93;11.88;;;2.90;99.90;;;;;;6163377;23;20032;-83
2023/01/24 11:31:48;;;;;;;16.73;11.77;;;3.00;99.90;;;;;;6209405;23;20013;-83
2023/01/24 11:34:34;;;;;;;16.77;12.02;;;3.00;99.90;;;;;;6209248;23;20016;-84
2023/01/24 11:37:24;;;;;;;18.05;12.80;;;2.80;99.90;;;;;;6208414;23;20031;-82
2023/01/24 11:40:14;;;;;;;17.02;12.23;;;2.90;99.90;;;;;;6209826;23;20139;-81
2023/01/24 11:43:10;;;;;;;18.08;11.73;;;2.80;99.90;;;;;;6212588;23;20024;-81
2023/01/24 11:45:41;;;;;;;19.45;12.82;;;3.10;99.90;;;;;;6215318;22;20088;-82
2023/01/24 11:48:21;;;;;;;16.65;12.05;;;3.20;99.90;;;;;;6213960;23;20012;-83
2023/01/24 11:51:05;;;;;;;19.52;12.23;;;3.10;99.90;;;;;;6213435;23;20073;-83
2023/01/24 11:53:58;;;;;;;16.90;12.27;;;3.10;99.90;;;;;;6213641;23;20046;-82
2023/01/24 11:56:36;;;;;;;18.48;12.98;;;3.20;99.90;;;;;;6216842;23;20010;-82
2023/01/24 11:59:30;;;;;;;18.23;12.73;;;3.20;99.90;;;;;;6215844;23;20113;-83
2023/01/24 12:02:17;;;;;;;15.02;11.80;;;3.10;99.90;;;;;;6211692;23;20016;-83
2023/01/24 12:04:45;;;;;;;17.35;13.45;;;3.20;99.90;;;;;;6215189;23;20012;-82
2023/01/24 12:07:19;;;;;;;17.58;13.00;;;3.00;99.90;;;;;;6214241;23;20056;-83
2023/01/24 12:09:59;;;;;;;17.17;12.55;;;3.00;99.90;;;;;;6216283;23;20004;-83
2023/01/24 12:12:48;;;;;;;17.67;12.93;;;2.90;99.90;;;;;;6215531;23;20073;-83
2023/01/24 12:15:27;;;;;;;17.05;11.52;;;3.00;99.90;;;;;;6213712;23;20016;-84
2023/01/24 12:18:22;;;;;;;16.40;11.73;;;3.10;99.90;;;;;;6213120;23;20016;-83
2023/01/24 12:21:02;;;;;;;18.52;13.10;;;2.90;99.90;;;;;;6189839;23;20016;-82
2023/01/24 12:23:38;;;;;;;20.05;13.35;;;3.00;99.90;;;;;;6188904;23;20012;-85
2023/01/24 12:26:16;;;;;;;17.67;13.32;;;3.00;99.90;;;;;;6215287;23;20012;-85
2023/01/24 12:28:51;;;;;;;18.05;13.57;;;2.90;99.90;;;;;;6212734;23;20070;-84
2023/01/24 12:31:25;;;;;;;17.65;13.25;;;3.00;99.90;;;;;;6211488;23;20051;-82
2023/01/24 12:34:09;;;;;;;18.33;13.77;;;3.00;99.90;;;;;;6190879;23;20049;-82
2023/01/24 12:36:48;;;;;;;17.85;12.43;;;3.00;99.90;;;;;;6212610;23;20016;-82
2023/01/24 12:39:26;;;;;;;17.38;13.30;;;3.10;99.90;;;;;;6211201;23;20020;-82
2023/01/24 12:42:04;;;;;;;21.85;13.65;;;3.00;99.90;;;;;;6210967;23;20407;-83
2023/01/24 12:44:37;;;;;;;20.67;13.77;;;2.90;99.90;;;;;;6212486;23;20024;-83
2023/01/24 12:47:39;;;;;;;20.42;14.15;;;3.10;99.90;;;;;;6209893;23;20027;-82
2023/01/24 12:50:34;;;;;;;19.83;14.38;;;3.10;99.90;;;;;;6191332;23;20016;-83
2023/01/24 12:56:20;;;;;;;20.83;14.07;;;3.00;99.90;;;;;;6214755;23;20015;-83
2023/01/24 12:58:49;;;;;;;20.33;13.52;;;3.20;99.90;;;;;;6188073;23;20436;-82
2023/01/24 13:01:27;;;;;;;19.35;13.93;;;3.20;99.90;;;;;;6211063;23;20016;-83
2023/01/24 13:04:37;;;;;;;19.25;13.57;;;3.30;99.90;;;;;;6212427;23;20009;-83
2023/01/24 13:07:03;;;;;;;18.20;13.45;;;3.10;99.90;;;;;;6122397;23;20014;-82
2023/01/24 13:09:59;;;;;;;19.42;13.90;;;2.90;99.90;;;;;;6097641;23;20020;-82
2023/01/24 13:12:28;;;;;;;17.45;13.98;;;3.20;99.90;;;;;;6144941;23;20049;-82
2023/01/24 13:15:06;;;;;;;19.67;13.27;;;3.00;99.90;;;;;;6120771;23;20265;-81
2023/01/24 13:18:05;;;;;;;20.52;15.30;;;3.10;99.90;;;;;;6127014;23;20017;-83
2023/01/24 13:20:56;;;;;;;19.45;13.60;;;3.10;99.90;;;;;;6122074;23;20025;-83
2023/01/24 13:23:33;;;;;;;18.75;13.88;;;3.10;99.90;;;;;;6145408;23;20105;-82
2023/01/24 13:26:04;;;;;;;19.73;14.75;;;3.00;99.90;;;;;;6096205;23;20014;-82
2023/01/24 13:29:21;;;;;;;21.70;14.65;;;3.00;99.90;;;;;;6094240;23;20020;-83
2023/01/24 13:32:08;;;;;;;17.88;13.00;;;3.10;99.90;;;;;;6005377;23;20030;-83
2023/01/24 13:34:40;;;;;;;20.63;13.48;;;3.10;99.90;;;;;;6008504;23;20016;-82
2023/01/24 13:37:13;;;;;;;19.02;13.82;;;3.00;99.90;;;;;;6029771;23;20107;-83
2023/01/24 13:39:41;;;;;;;20.70;14.57;;;2.90;99.90;;;;;;6008599;23;20047;-81
2023/01/24 13:42:37;;;;;;;20.70;14.25;;;2.90;99.90;;;;;;6098355;23;20057;-82
2023/01/24 13:45:22;;;;;;;20.02;14.48;;;2.90;99.90;;;;;;5978023;23;20163;-82
2023/01/24 13:47:47;;;;;;;19.58;13.95;;;2.90;99.90;;;;;;5977923;23;20059;-82